Time;durP1;ratioP1;P1;durP2;ratioP2;P2;SDS_P1;SDS_P2;PMS_P1;PMS_P2;Temp;Humidity;BMP_temperature;BMP_pressure;BME280_temperature;BME280_humidity;BME280_pressure;Samples;Min_cycle;Max_cycle;Signal;HPM_P1;HPM_P2
2023/03/31 00:00:42;;;;;;;;;2.67;2.67;;;;;;;;5072089;27;45585;-58
2023/03/31 00:03:20;;;;;;;;;2.67;1.67;;;;;;;;5071856;27;45424;-58
2023/03/31 00:05:47;;;;;;;;;1.33;1.33;;;;;;;;5072720;27;45574;-58
2023/03/31 00:08:13;;;;;;;;;3.33;3.33;;;;;;;;5072605;27;45520;-58
2023/03/31 00:10:44;;;;;;;;;2.33;2.33;;;;;;;;5070349;27;45640;-58
2023/03/31 00:13:10;;;;;;;;;3.00;1.67;;;;;;;;5062701;27;45545;-57
2023/03/31 00:15:36;;;;;;;;;4.00;3.33;;;;;;;;5074070;27;45548;-57
2023/03/31 00:18:02;;;;;;;;;3.33;1.67;;;;;;;;5070994;28;45525;-57
2023/03/31 00:20:27;;;;;;;;;5.00;2.67;;;;;;;;5061034;28;45452;-58
2023/03/31 00:22:53;;;;;;;;;2.00;2.00;;;;;;;;5068620;27;45692;-58
2023/03/31 00:25:19;;;;;;;;;2.00;1.00;;;;;;;;5066565;28;45423;-57
2023/03/31 00:27:45;;;;;;;;;2.00;2.00;;;;;;;;5061191;28;46186;-57
2023/03/31 00:30:11;;;;;;;;;3.00;2.33;;;;;;;;5069982;28;45654;-58
2023/03/31 00:32:37;;;;;;;;;3.67;2.00;;;;;;;;5071070;27;45578;-58
2023/03/31 00:35:04;;;;;;;;;3.67;2.67;;;;;;;;5060841;28;45598;-59
2023/03/31 00:37:29;;;;;;;;;3.00;1.33;;;;;;;;5072507;28;46016;-58
2023/03/31 00:39:58;;;;;;;;;3.00;2.00;;;;;;;;5073525;27;45479;-58
2023/03/31 00:42:23;;;;;;;;;1.00;1.00;;;;;;;;5064886;27;45597;-58
2023/03/31 00:45:08;;;;;;;;;2.00;2.00;;;;;;;;5066957;28;45562;-58
2023/03/31 00:47:33;;;;;;;;;2.67;1.33;;;;;;;;5072508;27;45907;-58
2023/03/31 00:49:58;;;;;;;;;4.00;3.00;;;;;;;;5076625;27;45555;-58
2023/03/31 00:52:30;;;;;;;;;4.00;2.33;;;;;;;;5073840;27;45454;-56
2023/03/31 00:54:57;;;;;;;;;3.33;3.33;;;;;;;;5071764;27;45504;-56
2023/03/31 00:57:23;;;;;;;;;2.33;2.00;;;;;;;;5056759;28;45466;-56
2023/03/31 00:59:50;;;;;;;;;2.67;2.00;;;;;;;;5067172;27;45491;-56
2023/03/31 01:02:17;;;;;;;;;1.00;1.00;;;;;;;;5076974;27;45531;-57
2023/03/31 01:04:45;;;;;;;;;3.67;2.33;;;;;;;;5076884;27;45539;-57
2023/03/31 01:07:15;;;;;;;;;2.67;2.33;;;;;;;;5073711;27;45746;-55
2023/03/31 01:09:46;;;;;;;;;1.67;0.00;;;;;;;;5073234;27;45598;-58
2023/03/31 01:12:12;;;;;;;;;2.00;1.67;;;;;;;;5067462;27;45515;-58
2023/03/31 01:14:38;;;;;;;;;2.00;2.00;;;;;;;;5076527;27;45584;-58
2023/03/31 01:17:04;;;;;;;;;4.00;2.00;;;;;;;;5076864;27;45474;-58
2023/03/31 01:19:40;;;;;;;;;3.33;3.33;;;;;;;;5076750;27;45473;-58
2023/03/31 01:22:21;;;;;;;;;4.67;2.33;;;;;;;;5074590;27;45446;-58
2023/03/31 01:25:13;;;;;;;;;2.00;2.00;;;;;;;;5072672;28;45459;-58
2023/03/31 01:27:47;;;;;;;;;3.00;3.00;;;;;;;;5076347;27;46153;-58
2023/03/31 01:30:25;;;;;;;;;3.33;2.67;;;;;;;;5076013;27;45500;-58
2023/03/31 01:33:05;;;;;;;;;2.67;1.33;;;;;;;;5076242;27;45626;-58
2023/03/31 01:35:49;;;;;;;;;4.00;2.00;;;;;;;;5076743;27;45536;-58
2023/03/31 01:38:17;;;;;;;;;1.00;1.00;;;;;;;;5076097;27;45524;-58
2023/03/31 01:41:01;;;;;;;;;3.00;1.00;;;;;;;;5070649;27;45457;-58
2023/03/31 01:43:30;;;;;;;;;2.33;1.67;;;;;;;;5075907;27;45544;-59
2023/03/31 01:45:58;;;;;;;;;1.00;1.00;;;;;;;;5076434;28;45616;-58
2023/03/31 01:48:38;;;;;;;;;3.00;2.00;;;;;;;;5070892;27;46155;-56
2023/03/31 01:51:27;;;;;;;;;2.00;2.00;;;;;;;;5068214;27;45564;-57
2023/03/31 01:54:00;;;;;;;;;5.00;3.00;;;;;;;;5049574;28;45619;-57
2023/03/31 01:56:41;;;;;;;;;2.00;2.00;;;;;;;;5075586;27;45438;-56
2023/03/31 01:59:12;;;;;;;;;2.33;2.33;;;;;;;;5059241;28;46303;-57
2023/03/31 02:01:38;;;;;;;;;3.33;2.00;;;;;;;;5074931;27;45458;-57
2023/03/31 02:04:07;;;;;;;;;4.00;4.00;;;;;;;;5072685;27;45490;-57
2023/03/31 02:06:39;;;;;;;;;3.67;2.00;;;;;;;;5074051;27;45573;-57
2023/03/31 02:09:10;;;;;;;;;2.00;2.00;;;;;;;;5075702;27;45582;-57
2023/03/31 02:11:36;;;;;;;;;3.00;2.67;;;;;;;;5072755;28;45470;-57
2023/03/31 02:14:04;;;;;;;;;3.00;1.33;;;;;;;;5066350;28;45406;-57
2023/03/31 02:16:32;;;;;;;;;3.33;3.33;;;;;;;;5070763;27;45480;-57
2023/03/31 02:19:04;;;;;;;;;2.00;2.00;;;;;;;;5075490;27;47194;-57
2023/03/31 02:21:30;;;;;;;;;1.00;1.00;;;;;;;;5075499;27;45422;-57
2023/03/31 02:23:55;;;;;;;;;2.00;2.00;;;;;;;;5075746;27;45521;-56
2023/03/31 02:26:24;;;;;;;;;1.67;1.67;;;;;;;;5074182;27;45483;-57
2023/03/31 02:28:49;;;;;;;;;2.00;1.00;;;;;;;;5073947;27;47468;-59
2023/03/31 02:31:27;;;;;;;;;2.67;2.00;;;;;;;;5062311;27;45570;-57
2023/03/31 02:33:52;;;;;;;;;6.00;3.00;;;;;;;;5073988;28;45417;-57
2023/03/31 02:36:17;;;;;;;;;5.00;3.33;;;;;;;;5075164;27;45459;-54
2023/03/31 02:38:46;;;;;;;;;2.00;2.00;;;;;;;;5075077;28;45520;-57
2023/03/31 02:41:12;;;;;;;;;2.67;2.67;;;;;;;;5075289;28;45466;-57
2023/03/31 02:43:37;;;;;;;;;3.00;2.00;;;;;;;;5075308;28;45383;-57
2023/03/31 02:46:02;;;;;;;;;3.00;3.00;;;;;;;;5071766;27;45494;-57
2023/03/31 02:48:29;;;;;;;;;2.00;2.00;;;;;;;;5074037;28;45586;-57
2023/03/31 02:51:10;;;;;;;;;1.33;1.33;;;;;;;;5075399;28;45560;-56
2023/03/31 02:53:53;;;;;;;;;6.00;3.67;;;;;;;;5070650;27;45511;-57
2023/03/31 02:56:37;;;;;;;;;2.00;2.00;;;;;;;;5075335;27;45735;-57
2023/03/31 02:59:11;;;;;;;;;3.33;3.00;;;;;;;;5074583;27;45552;-57
2023/03/31 03:01:41;;;;;;;;;2.00;2.00;;;;;;;;5074953;27;45589;-57
2023/03/31 03:04:24;;;;;;;;;4.00;2.33;;;;;;;;5074065;27;45534;-57
2023/03/31 03:07:08;;;;;;;;;2.00;2.00;;;;;;;;5073844;27;45435;-57
2023/03/31 03:10:00;;;;;;;;;2.33;2.33;;;;;;;;5070156;28;45612;-57
2023/03/31 03:12:31;;;;;;;;;4.67;3.00;;;;;;;;5072993;27;45466;-57
2023/03/31 03:15:16;;;;;;;;;2.67;2.00;;;;;;;;5071991;27;45584;-59
2023/03/31 03:17:43;;;;;;;;;5.33;5.33;;;;;;;;5063503;28;45453;-57
2023/03/31 03:20:08;;;;;;;;;2.33;2.33;;;;;;;;5070661;27;46803;-57
2023/03/31 03:22:34;;;;;;;;;3.67;3.00;;;;;;;;5074415;27;45524;-57
2023/03/31 03:24:59;;;;;;;;;3.00;3.00;;;;;;;;5074863;27;45373;-57
2023/03/31 03:27:25;;;;;;;;;2.67;2.00;;;;;;;;5074763;27;45566;-57
2023/03/31 03:29:50;;;;;;;;;4.00;4.00;;;;;;;;5074309;27;45542;-57
2023/03/31 03:32:16;;;;;;;;;3.00;3.00;;;;;;;;5074226;27;45464;-57
2023/03/31 03:34:41;;;;;;;;;4.33;3.00;;;;;;;;5073768;27;45561;-58
2023/03/31 03:37:06;;;;;;;;;5.67;4.67;;;;;;;;5074517;27;45469;-59
2023/03/31 03:39:32;;;;;;;;;4.00;3.00;;;;;;;;5068028;27;47764;-57
2023/03/31 03:41:57;;;;;;;;;3.00;3.00;;;;;;;;5074376;27;45544;-58
2023/03/31 03:44:22;;;;;;;;;6.00;4.00;;;;;;;;5074748;28;45462;-58
2023/03/31 03:46:47;;;;;;;;;2.33;2.33;;;;;;;;5074568;27;45558;-58
2023/03/31 03:49:12;;;;;;;;;3.00;3.00;;;;;;;;5074381;27;45713;-58
2023/03/31 03:51:38;;;;;;;;;2.00;2.00;;;;;;;;5073422;28;45521;-57
2023/03/31 03:54:03;;;;;;;;;4.00;2.67;;;;;;;;5070277;28;45465;-58
2023/03/31 03:56:28;;;;;;;;;4.00;3.00;;;;;;;;5073771;28;45480;-58
2023/03/31 03:58:53;;;;;;;;;3.00;3.00;;;;;;;;5074001;27;45678;-58
2023/03/31 04:01:18;;;;;;;;;4.00;4.00;;;;;;;;5074120;27;45574;-58
2023/03/31 04:03:44;;;;;;;;;4.67;4.00;;;;;;;;5074099;27;45689;-58
2023/03/31 04:06:09;;;;;;;;;5.00;4.00;;;;;;;;5072833;28;45493;-58
2023/03/31 04:08:35;;;;;;;;;3.67;2.33;;;;;;;;5072583;27;46170;-58
2023/03/31 04:11:01;;;;;;;;;7.00;6.00;;;;;;;;5074150;27;45426;-58
2023/03/31 04:13:26;;;;;;;;;4.67;4.67;;;;;;;;5073966;27;45544;-58
2023/03/31 04:15:51;;;;;;;;;6.00;4.33;;;;;;;;5073989;27;45410;-58
2023/03/31 04:18:22;;;;;;;;;2.00;2.00;;;;;;;;5070609;27;45562;-58
2023/03/31 04:21:02;;;;;;;;;5.00;4.00;;;;;;;;5063345;28;45548;-58
2023/03/31 04:23:28;;;;;;;;;4.00;4.00;;;;;;;;5073753;27;45433;-58
2023/03/31 04:25:53;;;;;;;;;8.00;5.67;;;;;;;;5073286;27;45343;-58
2023/03/31 04:28:18;;;;;;;;;3.67;3.00;;;;;;;;5072028;27;45512;-58
2023/03/31 04:30:44;;;;;;;;;4.33;4.33;;;;;;;;5072394;27;45629;-57
2023/03/31 04:33:09;;;;;;;;;7.00;5.33;;;;;;;;5072107;27;45603;-58
2023/03/31 04:35:47;;;;;;;;;5.33;4.00;;;;;;;;5060177;28;45463;-58
2023/03/31 04:38:12;;;;;;;;;7.33;3.00;;;;;;;;5073491;27;45922;-58
2023/03/31 04:40:38;;;;;;;;;6.33;5.67;;;;;;;;5073456;27;45416;-58
2023/03/31 04:43:04;;;;;;;;;5.67;4.33;;;;;;;;5073676;27;45495;-58
2023/03/31 04:45:29;;;;;;;;;7.00;5.33;;;;;;;;5073065;27;45618;-57
2023/03/31 04:47:54;;;;;;;;;7.00;5.67;;;;;;;;5072574;27;45592;-58
2023/03/31 04:50:20;;;;;;;;;7.00;4.33;;;;;;;;5070026;27;45470;-57
2023/03/31 04:52:45;;;;;;;;;5.00;4.00;;;;;;;;5063297;28;45474;-58
2023/03/31 04:55:10;;;;;;;;;4.00;4.00;;;;;;;;5072903;27;45581;-58
2023/03/31 04:57:36;;;;;;;;;7.00;4.33;;;;;;;;5073009;27;46230;-58
2023/03/31 05:00:04;;;;;;;;;5.33;5.33;;;;;;;;5073331;28;45512;-58
2023/03/31 05:02:31;;;;;;;;;6.00;4.00;;;;;;;;5062759;28;45512;-57
2023/03/31 05:04:56;;;;;;;;;5.67;4.00;;;;;;;;5072271;28;45567;-58
2023/03/31 05:07:21;;;;;;;;;5.67;4.00;;;;;;;;5072490;27;45476;-58
2023/03/31 05:09:46;;;;;;;;;5.33;3.00;;;;;;;;5073177;27;45639;-58
2023/03/31 05:12:11;;;;;;;;;5.00;5.00;;;;;;;;5073273;28;45989;-58
2023/03/31 05:14:36;;;;;;;;;6.67;3.67;;;;;;;;5073414;28;45392;-58
2023/03/31 05:17:02;;;;;;;;;7.00;4.67;;;;;;;;5072514;28;45580;-58
2023/03/31 05:19:27;;;;;;;;;4.67;4.67;;;;;;;;5072828;28;45555;-59
2023/03/31 05:21:52;;;;;;;;;8.33;4.67;;;;;;;;5072267;27;45540;-58
2023/03/31 05:24:17;;;;;;;;;6.67;5.67;;;;;;;;5067454;27;45649;-57
2023/03/31 05:26:51;;;;;;;;;6.33;5.67;;;;;;;;5071268;27;45571;-57
2023/03/31 05:29:16;;;;;;;;;4.00;3.00;;;;;;;;5072761;27;45527;-58
2023/03/31 05:31:41;;;;;;;;;7.00;5.00;;;;;;;;5072530;27;45518;-58
2023/03/31 05:34:07;;;;;;;;;5.00;4.00;;;;;;;;5075799;27;45422;-57
2023/03/31 05:36:32;;;;;;;;;5.33;4.33;;;;;;;;5076046;27;45475;-57
2023/03/31 05:38:57;;;;;;;;;9.67;4.00;;;;;;;;5070653;27;45615;-55
2023/03/31 05:41:22;;;;;;;;;4.00;4.00;;;;;;;;5069597;28;45429;-58
2023/03/31 05:43:47;;;;;;;;;8.33;5.67;;;;;;;;5070278;27;45351;-57
2023/03/31 05:46:12;;;;;;;;;7.00;6.67;;;;;;;;5059607;27;46335;-57
2023/03/31 05:48:38;;;;;;;;;5.33;3.00;;;;;;;;5067775;28;45671;-57
2023/03/31 05:51:03;;;;;;;;;4.33;2.00;;;;;;;;5073351;27;45417;-57
2023/03/31 05:53:29;;;;;;;;;5.00;3.67;;;;;;;;5071625;27;45675;-58
2023/03/31 05:55:58;;;;;;;;;3.67;3.67;;;;;;;;5070854;27;46640;-57
2023/03/31 05:58:24;;;;;;;;;6.67;4.00;;;;;;;;5075316;27;45467;-58
2023/03/31 06:00:49;;;;;;;;;3.33;3.33;;;;;;;;5062123;28;45525;-57
2023/03/31 06:03:14;;;;;;;;;6.00;5.00;;;;;;;;5075572;27;45461;-57
2023/03/31 06:05:46;;;;;;;;;7.00;6.00;;;;;;;;5063362;27;46053;-57
2023/03/31 06:08:11;;;;;;;;;6.67;5.33;;;;;;;;5073253;27;45531;-58
2023/03/31 06:10:37;;;;;;;;;6.00;4.33;;;;;;;;5060404;28;45444;-58
2023/03/31 06:13:02;;;;;;;;;12.00;8.67;;;;;;;;5063733;28;45547;-58
2023/03/31 06:15:27;;;;;;;;;9.00;4.33;;;;;;;;5074105;28;46047;-58
2023/03/31 06:17:53;;;;;;;;;5.00;4.00;;;;;;;;5073129;27;45462;-57
2023/03/31 06:20:18;;;;;;;;;7.00;5.00;;;;;;;;5058333;27;45496;-56
2023/03/31 06:22:43;;;;;;;;;3.00;3.00;;;;;;;;5068230;28;45819;-58
2023/03/31 06:25:08;;;;;;;;;7.00;5.67;;;;;;;;5063162;28;45655;-58
2023/03/31 06:27:33;;;;;;;;;8.00;5.00;;;;;;;;5073836;28;45564;-58
2023/03/31 06:29:59;;;;;;;;;7.00;5.67;;;;;;;;5067157;27;45422;-59
2023/03/31 06:32:24;;;;;;;;;4.67;3.33;;;;;;;;5066596;28;45753;-60
2023/03/31 06:34:49;;;;;;;;;4.67;3.33;;;;;;;;5064855;27;47420;-60
2023/03/31 06:37:15;;;;;;;;;5.67;4.67;;;;;;;;5075358;27;45558;-60
2023/03/31 06:39:40;;;;;;;;;6.67;6.67;;;;;;;;5075130;27;45646;-60
2023/03/31 06:42:06;;;;;;;;;8.33;6.00;;;;;;;;5074671;28;45444;-59
2023/03/31 06:44:31;;;;;;;;;6.00;4.00;;;;;;;;5073427;28;46144;-60
2023/03/31 06:46:56;;;;;;;;;6.67;5.33;;;;;;;;5074326;27;45573;-59
2023/03/31 06:49:21;;;;;;;;;8.00;5.00;;;;;;;;5074628;28;45479;-60
2023/03/31 06:51:46;;;;;;;;;6.67;4.67;;;;;;;;5072739;27;45560;-59
2023/03/31 06:54:12;;;;;;;;;6.67;4.00;;;;;;;;5073068;27;46930;-60
2023/03/31 06:56:37;;;;;;;;;7.00;4.33;;;;;;;;5074362;27;45367;-61
2023/03/31 06:59:02;;;;;;;;;5.33;4.33;;;;;;;;5074129;27;45654;-61
2023/03/31 07:01:27;;;;;;;;;7.00;5.33;;;;;;;;5074167;27;45574;-61
2023/03/31 07:03:52;;;;;;;;;3.00;3.00;;;;;;;;5074116;27;45501;-61
2023/03/31 07:06:18;;;;;;;;;2.00;2.00;;;;;;;;5074090;27;45594;-61
2023/03/31 07:08:43;;;;;;;;;6.00;3.33;;;;;;;;5074106;27;45514;-60
2023/03/31 07:11:08;;;;;;;;;5.67;2.67;;;;;;;;5072541;27;45512;-59
2023/03/31 07:13:33;;;;;;;;;6.00;5.33;;;;;;;;5074103;27;45521;-59
2023/03/31 07:15:58;;;;;;;;;2.67;2.67;;;;;;;;5073830;27;45537;-59
2023/03/31 07:18:30;;;;;;;;;5.33;3.67;;;;;;;;5073994;27;45533;-59
2023/03/31 07:20:56;;;;;;;;;2.67;2.33;;;;;;;;5073973;27;45422;-59
2023/03/31 07:23:21;;;;;;;;;6.67;4.00;;;;;;;;5073848;27;45968;-60
2023/03/31 07:25:46;;;;;;;;;6.00;4.67;;;;;;;;5074004;28;45540;-60
2023/03/31 07:28:12;;;;;;;;;3.00;3.00;;;;;;;;5073657;27;45471;-59
2023/03/31 07:30:38;;;;;;;;;5.67;2.00;;;;;;;;5072177;28;45553;-59
2023/03/31 07:33:04;;;;;;;;;1.00;0.67;;;;;;;;5073595;27;46335;-59
2023/03/31 07:35:29;;;;;;;;;5.00;2.00;;;;;;;;5073731;27;45552;-59
2023/03/31 07:37:54;;;;;;;;;4.00;4.00;;;;;;;;5073891;27;45478;-59
2023/03/31 07:40:21;;;;;;;;;4.33;3.00;;;;;;;;5073730;28;45451;-59
2023/03/31 07:42:47;;;;;;;;;3.00;3.00;;;;;;;;5073442;27;45512;-59
2023/03/31 07:45:13;;;;;;;;;5.33;2.00;;;;;;;;5073015;27;45504;-59
2023/03/31 07:47:38;;;;;;;;;8.00;4.00;;;;;;;;5073632;27;45473;-59
2023/03/31 07:50:04;;;;;;;;;2.67;2.67;;;;;;;;5073739;27;45490;-59
2023/03/31 07:52:30;;;;;;;;;5.67;2.00;;;;;;;;5072132;27;47162;-59
2023/03/31 07:54:55;;;;;;;;;5.00;5.00;;;;;;;;5073406;27;45615;-60
2023/03/31 07:57:20;;;;;;;;;5.00;4.00;;;;;;;;5073124;28;45491;-59
2023/03/31 07:59:45;;;;;;;;;4.00;3.33;;;;;;;;5073543;27;45597;-59
2023/03/31 08:02:15;;;;;;;;;3.00;3.00;;;;;;;;5073027;27;45596;-59
2023/03/31 08:04:43;;;;;;;;;4.33;4.00;;;;;;;;5072216;28;46969;-59
2023/03/31 08:07:09;;;;;;;;;3.00;3.00;;;;;;;;5073095;27;45451;-59
2023/03/31 08:09:34;;;;;;;;;4.33;2.00;;;;;;;;5073294;27;45633;-59
2023/03/31 08:12:00;;;;;;;;;6.00;5.00;;;;;;;;5073105;27;46246;-60
2023/03/31 08:14:25;;;;;;;;;4.67;3.67;;;;;;;;5073324;27;45413;-59
2023/03/31 08:16:52;;;;;;;;;4.00;2.00;;;;;;;;5073354;27;45633;-59
2023/03/31 08:19:17;;;;;;;;;2.00;2.00;;;;;;;;5073072;28;45532;-59
2023/03/31 08:21:42;;;;;;;;;3.67;2.67;;;;;;;;5072890;27;46126;-59
2023/03/31 08:24:07;;;;;;;;;4.67;3.33;;;;;;;;5072920;27;45558;-59
2023/03/31 08:26:33;;;;;;;;;5.00;4.00;;;;;;;;5072866;28;45521;-59
2023/03/31 08:28:59;;;;;;;;;3.00;3.00;;;;;;;;5072821;27;45475;-59
2023/03/31 08:31:25;;;;;;;;;4.00;4.00;;;;;;;;5072243;28;46086;-59
2023/03/31 08:33:50;;;;;;;;;5.67;4.00;;;;;;;;5072895;27;45482;-59
2023/03/31 08:36:15;;;;;;;;;2.00;2.00;;;;;;;;5072848;27;45796;-59
2023/03/31 08:38:41;;;;;;;;;4.00;3.00;;;;;;;;5072998;27;45586;-58
2023/03/31 08:41:13;;;;;;;;;3.00;2.00;;;;;;;;5072740;27;46132;-59
2023/03/31 08:43:42;;;;;;;;;2.33;2.00;;;;;;;;5072742;28;45534;-58
2023/03/31 08:46:12;;;;;;;;;4.00;2.33;;;;;;;;5072843;27;45396;-59
2023/03/31 08:48:47;;;;;;;;;6.67;5.67;;;;;;;;5072566;27;45417;-59
2023/03/31 08:51:26;;;;;;;;;5.00;4.00;;;;;;;;5071216;27;47087;-59
2023/03/31 08:54:02;;;;;;;;;2.00;2.00;;;;;;;;5071209;28;45521;-59
2023/03/31 08:56:29;;;;;;;;;4.00;4.00;;;;;;;;5072644;27;45592;-59
2023/03/31 08:58:54;;;;;;;;;6.33;4.33;;;;;;;;5072262;28;45421;-60
2023/03/31 09:01:31;;;;;;;;;3.33;2.33;;;;;;;;5072558;27;46133;-59
2023/03/31 09:03:59;;;;;;;;;4.33;2.00;;;;;;;;5072431;27;45488;-58
2023/03/31 09:06:48;;;;;;;;;5.67;5.00;;;;;;;;5072626;28;45584;-60
2023/03/31 09:09:20;;;;;;;;;6.67;5.67;;;;;;;;5057776;28;45612;-58
2023/03/31 09:11:49;;;;;;;;;5.00;2.00;;;;;;;;5075858;27;46113;-59
2023/03/31 09:14:28;;;;;;;;;6.00;2.00;;;;;;;;5075722;27;46108;-61
2023/03/31 09:16:58;;;;;;;;;3.00;3.00;;;;;;;;5074234;27;45503;-58
2023/03/31 09:19:30;;;;;;;;;3.67;3.67;;;;;;;;5075688;27;45488;-61
2023/03/31 09:21:59;;;;;;;;;5.67;3.67;;;;;;;;5075577;27;47282;-58
2023/03/31 09:24:30;;;;;;;;;3.00;3.00;;;;;;;;5075656;27;45571;-60
2023/03/31 09:27:00;;;;;;;;;5.67;4.00;;;;;;;;5076018;27;45594;-60
2023/03/31 09:29:33;;;;;;;;;1.67;1.67;;;;;;;;5075888;27;46064;-58
2023/03/31 09:32:09;;;;;;;;;2.00;2.00;;;;;;;;5075467;27;46649;-61
2023/03/31 09:34:35;;;;;;;;;2.67;2.00;;;;;;;;5075775;27;45585;-61
2023/03/31 09:37:00;;;;;;;;;3.33;2.00;;;;;;;;5075822;27;45568;-60
2023/03/31 09:39:26;;;;;;;;;2.67;1.67;;;;;;;;5075796;27;45643;-60
2023/03/31 09:41:52;;;;;;;;;4.00;4.00;;;;;;;;5075508;28;45935;-61
2023/03/31 09:44:35;;;;;;;;;5.00;2.67;;;;;;;;5075643;27;45517;-60
2023/03/31 09:47:02;;;;;;;;;1.67;1.67;;;;;;;;5075550;27;45422;-59
2023/03/31 09:49:31;;;;;;;;;1.67;1.67;;;;;;;;5075756;27;45505;-60
2023/03/31 09:52:11;;;;;;;;;3.00;3.00;;;;;;;;5075082;27;45548;-59
2023/03/31 09:54:44;;;;;;;;;2.00;2.00;;;;;;;;5075454;28;45441;-59
2023/03/31 09:57:13;;;;;;;;;3.67;2.00;;;;;;;;5075079;27;45468;-59
2023/03/31 09:59:40;;;;;;;;;12.67;10.00;;;;;;;;5075010;27;45410;-59
2023/03/31 10:02:20;;;;;;;;;3.67;2.00;;;;;;;;5074793;27;45940;-59
2023/03/31 10:04:45;;;;;;;;;3.00;1.67;;;;;;;;5075007;27;45437;-60
2023/03/31 10:07:12;;;;;;;;;7.33;5.00;;;;;;;;5075023;27;45572;-60
2023/03/31 10:09:37;;;;;;;;;4.00;3.00;;;;;;;;5075214;27;45529;-60
2023/03/31 10:12:07;;;;;;;;;3.00;2.00;;;;;;;;5074451;27;46181;-60
2023/03/31 10:14:38;;;;;;;;;4.00;3.00;;;;;;;;5074689;27;45518;-60
2023/03/31 10:17:05;;;;;;;;;4.33;3.00;;;;;;;;5074783;27;45459;-61
2023/03/31 10:19:32;;;;;;;;;3.00;2.00;;;;;;;;5074250;27;45449;-60
2023/03/31 10:21:58;;;;;;;;;5.00;4.00;;;;;;;;5074442;27;45461;-60
2023/03/31 10:24:24;;;;;;;;;5.33;2.33;;;;;;;;5074423;27;45466;-60
2023/03/31 10:26:52;;;;;;;;;5.00;4.00;;;;;;;;5074516;28;45429;-60
2023/03/31 10:29:20;;;;;;;;;1.00;1.00;;;;;;;;5074835;28;45436;-60
2023/03/31 10:31:46;;;;;;;;;3.67;2.00;;;;;;;;5073647;27;45473;-60
2023/03/31 10:34:15;;;;;;;;;1.67;1.00;;;;;;;;5074319;27;45440;-60
2023/03/31 10:36:44;;;;;;;;;1.00;1.00;;;;;;;;5072435;27;45429;-60
2023/03/31 10:39:12;;;;;;;;;2.67;1.00;;;;;;;;5074260;28;45571;-60
2023/03/31 10:41:38;;;;;;;;;2.67;1.67;;;;;;;;5073904;27;45499;-60
2023/03/31 10:44:03;;;;;;;;;1.67;1.67;;;;;;;;5074036;27;45535;-60
2023/03/31 10:46:39;;;;;;;;;1.33;1.33;;;;;;;;5074277;27;45622;-60
2023/03/31 10:49:19;;;;;;;;;5.00;4.33;;;;;;;;5074172;27;45495;-60
2023/03/31 10:51:48;;;;;;;;;4.33;3.33;;;;;;;;5073862;27;45977;-60
2023/03/31 10:54:13;;;;;;;;;1.33;1.33;;;;;;;;5072723;27;45491;-60
2023/03/31 10:56:42;;;;;;;;;1.00;1.00;;;;;;;;5074123;27;45544;-61
2023/03/31 10:59:22;;;;;;;;;3.00;1.00;;;;;;;;5074012;27;45554;-61
2023/03/31 11:01:54;;;;;;;;;2.67;2.00;;;;;;;;5072417;27;45480;-61
2023/03/31 11:04:39;;;;;;;;;2.00;1.00;;;;;;;;5074029;27;46087;-60
2023/03/31 11:07:12;;;;;;;;;4.00;2.67;;;;;;;;5073943;28;45506;-61
2023/03/31 11:09:56;;;;;;;;;2.00;2.00;;;;;;;;5073937;27;45484;-60
2023/03/31 11:12:43;;;;;;;;;5.00;3.00;;;;;;;;5073705;28;45579;-60
2023/03/31 11:15:15;;;;;;;;;3.67;1.33;;;;;;;;5073308;27;45607;-60
2023/03/31 11:17:46;;;;;;;;;2.00;2.00;;;;;;;;5073664;27;45448;-60
2023/03/31 11:20:29;;;;;;;;;3.33;1.33;;;;;;;;5073764;27;45461;-60
2023/03/31 11:23:33;;;;;;;;;1.67;1.67;;;;;;;;5073550;27;45457;-60
2023/03/31 11:26:09;;;;;;;;;1.67;1.67;;;;;;;;5030842;28;45645;-61
2023/03/31 11:28:53;;;;;;;;;4.67;3.00;;;;;;;;5031109;28;45521;-60
2023/03/31 11:31:21;;;;;;;;;4.00;2.00;;;;;;;;5045895;28;45483;-60
2023/03/31 11:33:46;;;;;;;;;7.00;3.00;;;;;;;;5073351;27;46252;-61
2023/03/31 11:36:20;;;;;;;;;3.00;2.67;;;;;;;;5072512;27;45751;-61
2023/03/31 11:38:46;;;;;;;;;8.33;4.00;;;;;;;;5062951;27;45459;-59
2023/03/31 11:41:12;;;;;;;;;14.67;14.00;;;;;;;;5060157;27;45678;-59
2023/03/31 11:43:48;;;;;;;;;7.00;4.33;;;;;;;;5062773;27;45568;-58
2023/03/31 11:46:20;;;;;;;;;3.33;2.00;;;;;;;;5065957;27;45487;-60
2023/03/31 11:48:58;;;;;;;;;2.00;0.33;;;;;;;;5067362;27;45476;-60
2023/03/31 11:51:42;;;;;;;;;2.00;2.00;;;;;;;;5061060;27;45472;-60
2023/03/31 11:54:15;;;;;;;;;1.00;1.00;;;;;;;;5080585;27;45516;-60
2023/03/31 11:56:40;;;;;;;;;2.67;1.67;;;;;;;;5066509;27;45540;-60
2023/03/31 11:59:06;;;;;;;;;0.33;0.33;;;;;;;;5061441;27;45817;-60
2023/03/31 12:01:50;;;;;;;;;3.00;1.67;;;;;;;;5064193;27;45465;-59
2023/03/31 12:04:30;;;;;;;;;0.00;0.00;;;;;;;;5059851;27;45496;-59
2023/03/31 12:06:59;;;;;;;;;1.33;1.33;;;;;;;;5063311;27;45473;-59
2023/03/31 12:09:42;;;;;;;;;1.67;1.67;;;;;;;;5073122;27;45545;-60
2023/03/31 12:12:28;;;;;;;;;1.67;1.67;;;;;;;;5067458;28;45464;-60
2023/03/31 12:15:01;;;;;;;;;4.00;4.00;;;;;;;;5063425;27;45487;-61
2023/03/31 12:17:28;;;;;;;;;1.00;1.00;;;;;;;;5073028;27;45573;-61
2023/03/31 12:20:09;;;;;;;;;2.00;2.00;;;;;;;;5073068;27;45509;-60
2023/03/31 12:22:44;;;;;;;;;1.00;1.00;;;;;;;;5072840;27;45464;-61
2023/03/31 12:25:14;;;;;;;;;2.00;1.00;;;;;;;;5071602;27;46291;-61
2023/03/31 12:27:40;;;;;;;;;2.33;1.33;;;;;;;;5073067;27;45425;-60
2023/03/31 12:30:14;;;;;;;;;2.00;1.00;;;;;;;;5072810;27;45601;-61
2023/03/31 12:32:42;;;;;;;;;1.00;1.00;;;;;;;;5073156;27;45496;-61
2023/03/31 12:35:14;;;;;;;;;1.00;1.00;;;;;;;;5071889;28;45546;-61
2023/03/31 12:37:59;;;;;;;;;0.67;0.67;;;;;;;;5072542;27;45473;-61
2023/03/31 12:40:33;;;;;;;;;4.00;1.00;;;;;;;;5071442;27;45493;-61
2023/03/31 12:43:16;;;;;;;;;2.00;1.00;;;;;;;;5073979;28;45560;-61
2023/03/31 12:45:57;;;;;;;;;1.33;1.00;;;;;;;;5076194;27;45433;-61
2023/03/31 12:48:32;;;;;;;;;0.33;0.00;;;;;;;;5076335;27;45488;-61
2023/03/31 12:51:10;;;;;;;;;0.00;0.00;;;;;;;;5075407;27;45477;-61
2023/03/31 12:53:45;;;;;;;;;2.00;1.00;;;;;;;;5075479;27;45585;-61
2023/03/31 12:56:11;;;;;;;;;4.00;1.33;;;;;;;;5076187;27;46245;-61
2023/03/31 12:58:37;;;;;;;;;1.67;1.00;;;;;;;;5075727;27;45407;-61
2023/03/31 13:01:10;;;;;;;;;0.00;0.00;;;;;;;;5076499;27;45539;-61
2023/03/31 13:03:39;;;;;;;;;0.67;0.67;;;;;;;;5076046;28;45518;-60
2023/03/31 13:06:04;;;;;;;;;0.00;0.00;;;;;;;;5076029;27;46036;-61
2023/03/31 13:08:48;;;;;;;;;0.67;0.67;;;;;;;;5076274;27;45571;-61
2023/03/31 13:11:14;;;;;;;;;1.00;1.00;;;;;;;;5074962;27;45459;-61
2023/03/31 13:14:05;;;;;;;;;0.00;0.00;;;;;;;;5075570;27;45598;-62
2023/03/31 13:16:34;;;;;;;;;2.67;1.33;;;;;;;;5073508;27;45460;-60
2023/03/31 13:19:00;;;;;;;;;0.00;0.00;;;;;;;;5075915;27;45438;-61
2023/03/31 13:21:25;;;;;;;;;1.00;0.00;;;;;;;;5075909;27;45787;-61
2023/03/31 13:23:52;;;;;;;;;1.00;1.00;;;;;;;;5075689;27;45595;-61
2023/03/31 13:26:32;;;;;;;;;0.00;0.00;;;;;;;;5074891;27;45480;-61
2023/03/31 13:29:12;;;;;;;;;0.00;0.00;;;;;;;;5075583;27;45552;-61
2023/03/31 13:31:56;;;;;;;;;1.67;1.67;;;;;;;;5075356;27;45501;-61
2023/03/31 13:34:21;;;;;;;;;3.00;2.00;;;;;;;;5075824;27;45436;-61
2023/03/31 13:36:58;;;;;;;;;1.00;1.00;;;;;;;;5074094;27;47153;-61
2023/03/31 13:39:32;;;;;;;;;0.33;0.33;;;;;;;;5075471;27;45643;-61
2023/03/31 13:42:16;;;;;;;;;0.67;0.67;;;;;;;;5075552;27;45485;-61
2023/03/31 13:44:54;;;;;;;;;2.00;0.00;;;;;;;;5075526;27;45524;-61
2023/03/31 13:47:33;;;;;;;;;0.00;0.00;;;;;;;;5075290;27;46023;-61
2023/03/31 13:50:14;;;;;;;;;2.00;1.00;;;;;;;;5073862;27;45471;-61
2023/03/31 13:52:42;;;;;;;;;0.00;0.00;;;;;;;;5075510;27;45533;-60
2023/03/31 13:55:25;;;;;;;;;0.00;0.00;;;;;;;;5074804;27;45482;-60
2023/03/31 13:58:04;;;;;;;;;1.00;1.00;;;;;;;;5075308;27;45476;-60
2023/03/31 14:00:48;;;;;;;;;1.00;0.67;;;;;;;;5075285;27;45562;-60
2023/03/31 14:03:32;;;;;;;;;2.00;1.00;;;;;;;;5073905;27;45576;-60
2023/03/31 14:06:16;;;;;;;;;2.00;1.00;;;;;;;;5075342;27;45512;-60
2023/03/31 14:08:46;;;;;;;;;2.00;2.00;;;;;;;;5075052;27;46079;-60
2023/03/31 14:11:15;;;;;;;;;0.33;0.33;;;;;;;;5073881;27;45631;-60
2023/03/31 14:13:41;;;;;;;;;2.00;0.00;;;;;;;;5075244;28;45572;-60
2023/03/31 14:16:07;;;;;;;;;0.00;0.00;;;;;;;;5075522;27;45495;-60
2023/03/31 14:18:34;;;;;;;;;0.00;0.00;;;;;;;;5074670;27;46409;-60
2023/03/31 14:21:07;;;;;;;;;0.00;0.00;;;;;;;;5075197;27;45470;-60
2023/03/31 14:23:46;;;;;;;;;1.67;0.00;;;;;;;;5075059;27;45535;-60
2023/03/31 14:26:35;;;;;;;;;0.00;0.00;;;;;;;;5074995;27;45518;-59
2023/03/31 14:29:10;;;;;;;;;0.00;0.00;;;;;;;;5074827;27;45604;-58
2023/03/31 14:31:38;;;;;;;;;1.00;0.00;;;;;;;;5074542;27;45568;-61
2023/03/31 14:34:11;;;;;;;;;1.00;0.00;;;;;;;;5073483;27;45565;-59
2023/03/31 14:36:56;;;;;;;;;0.67;0.67;;;;;;;;5075008;27;45421;-62
2023/03/31 14:39:23;;;;;;;;;1.00;0.67;;;;;;;;5074575;27;45506;-59
2023/03/31 14:41:52;;;;;;;;;2.67;0.00;;;;;;;;5074699;27;45467;-58
2023/03/31 14:44:18;;;;;;;;;0.67;0.67;;;;;;;;5074629;28;45481;-59
2023/03/31 14:46:43;;;;;;;;;0.67;0.00;;;;;;;;5073293;27;45623;-59
2023/03/31 14:49:24;;;;;;;;;2.33;0.00;;;;;;;;5074412;27;46216;-59
2023/03/31 14:51:51;;;;;;;;;0.00;0.00;;;;;;;;5074569;27;45557;-59
2023/03/31 14:54:18;;;;;;;;;0.00;0.00;;;;;;;;5074656;28;45568;-61
2023/03/31 14:56:44;;;;;;;;;0.00;0.00;;;;;;;;5074609;27;45612;-59
2023/03/31 14:59:10;;;;;;;;;2.00;0.67;;;;;;;;5074474;27;45433;-59